Time;durP1;ratioP1;P1;durP2;ratioP2;P2;SDS_P1;SDS_P2;PMS_P1;PMS_P2;Temp;Humidity;BMP_temperature;BMP_pressure;BME280_temperature;BME280_humidity;BME280_pressure;Samples;Min_cycle;Max_cycle;Signal;HPM_P1;HPM_P2
2022/06/24 00:01:32;;;;;;;;;;;26.60;43.60;;;30.80;27.74;100803.28;5094868;28;19916;-12
2022/06/24 00:03:58;;;;;;;;;;;26.60;43.60;;;30.77;27.65;100804.47;5093444;28;19916;-12
2022/06/24 00:06:28;;;;;;;;;;;26.60;43.60;;;30.73;27.69;100796.84;5092881;28;19915;-12
2022/06/24 00:08:58;;;;;;;;;;;26.60;43.60;;;30.74;27.80;100802.06;5108982;28;19916;-12
2022/06/24 00:11:28;;;;;;;;;;;26.60;43.60;;;30.76;27.58;100797.34;5113018;28;19916;-13
2022/06/24 00:14:08;;;;;;;;;;;26.60;43.70;;;30.79;27.60;100798.88;5116477;28;19915;-12
2022/06/24 00:17:06;;;;;;;;;;;26.60;43.60;;;30.79;27.62;100793.47;5116319;28;19962;-13
2022/06/24 00:19:34;;;;;;;;;;;26.60;43.70;;;30.75;27.64;100789.41;5116512;28;19916;-12
2022/06/24 00:22:11;;;;;;;;;;;26.60;43.70;;;30.75;27.76;100790.25;5116443;28;19915;-12
2022/06/24 00:24:38;;;;;;;;;;;26.60;43.70;;;30.70;27.61;100781.78;5116383;28;19916;-12
2022/06/24 00:27:19;;;;;;;;;;;26.60;43.70;;;30.69;27.55;100779.25;5116618;28;20302;-12
2022/06/24 00:29:46;;;;;;;;;;;26.60;43.70;;;30.75;27.67;100792.13;5114843;28;20389;-12
2022/06/24 00:32:11;;;;;;;;;;;26.60;43.70;;;30.74;27.65;100785.88;5116498;28;20352;-12
2022/06/24 00:34:39;;;;;;;;;;;26.60;43.70;;;30.72;27.67;100785.16;5116153;28;19924;-12
2022/06/24 00:37:23;;;;;;;;;;;26.60;43.70;;;30.75;27.87;100784.84;5116037;28;20340;-12
2022/06/24 00:39:50;;;;;;;;;;;26.60;43.70;;;30.68;27.72;100778.41;5115980;28;19919;-12
2022/06/24 00:42:18;;;;;;;;;;;26.60;43.70;;;30.71;27.70;100775.41;5097686;28;19915;-12
2022/06/24 00:44:49;;;;;;;;;;;26.60;43.70;;;30.71;27.67;100774.56;5116094;28;19923;-12
2022/06/24 00:47:15;;;;;;;;;;;26.60;43.70;;;30.73;27.78;100764.44;5116144;28;19915;-12
2022/06/24 00:49:42;;;;;;;;;;;26.60;43.70;;;30.71;27.80;100761.91;5097653;28;19965;-12
2022/06/24 00:52:08;;;;;;;;;;;26.60;43.80;;;30.73;27.63;100765.28;5097707;28;19924;-12
2022/06/24 00:54:34;;;;;;;;;;;26.50;43.70;;;30.70;27.78;100756.66;5116156;28;20252;-12
2022/06/24 00:57:00;;;;;;;;;;;26.50;43.70;;;30.73;27.77;100761.75;5115712;28;19968;-12
2022/06/24 00:59:26;;;;;;;;;;;26.50;43.70;;;30.72;27.71;100760.88;5116064;28;19960;-12
2022/06/24 01:01:52;;;;;;;;;;;26.50;43.70;;;30.69;27.81;100750.44;5116037;28;19923;-12
2022/06/24 01:04:17;;;;;;;;;;;26.60;43.80;;;30.68;27.67;100748.72;5116342;28;19960;-12
2022/06/24 01:06:44;;;;;;;;;;;26.50;43.70;;;30.69;27.81;100753.13;5115967;28;19915;-12
2022/06/24 01:09:11;;;;;;;;;;;26.50;43.70;;;30.70;27.63;100752.09;5115876;28;19915;-12
2022/06/24 01:11:41;;;;;;;;;;;26.50;43.70;;;30.69;27.71;100744.16;5097322;28;19923;-12
2022/06/24 01:14:08;;;;;;;;;;;26.50;43.70;;;30.71;27.78;100744.88;5115624;28;19922;-12
2022/06/24 01:16:34;;;;;;;;;;;26.50;43.70;;;30.71;27.74;100744.88;5115436;28;19923;-13
2022/06/24 01:19:03;;;;;;;;;;;26.50;43.70;;;30.64;27.79;100733.88;5115478;28;19961;-12
2022/06/24 01:21:39;;;;;;;;;;;26.50;43.80;;;30.69;27.86;100734.25;5115412;28;19915;-12
2022/06/24 01:24:15;;;;;;;;;;;26.50;43.80;;;30.65;27.78;100727.47;5115402;28;20256;-12
2022/06/24 01:26:46;;;;;;;;;;;26.50;43.80;;;30.70;27.84;100732.38;5115458;28;19919;-12
2022/06/24 01:29:12;;;;;;;;;;;26.50;43.80;;;30.65;27.88;100728.28;5115371;28;19930;-12
2022/06/24 01:31:40;;;;;;;;;;;26.50;43.80;;;30.68;27.73;100724.44;5115185;28;19965;-12
2022/06/24 01:34:08;;;;;;;;;;;26.50;43.80;;;30.63;27.79;100718.69;5115219;28;20261;-12
2022/06/24 01:36:34;;;;;;;;;;;26.50;43.80;;;30.68;27.84;100721.75;5115192;28;19916;-12
2022/06/24 01:38:59;;;;;;;;;;;26.50;43.80;;;30.70;27.72;100722.41;5115719;28;19923;-13
2022/06/24 01:41:25;;;;;;;;;;;26.50;43.80;;;30.66;27.91;100719.22;5115572;28;19915;-12
2022/06/24 01:43:51;;;;;;;;;;;26.50;43.80;;;30.69;27.83;100720.75;5115463;28;19916;-13
2022/06/24 01:46:16;;;;;;;;;;;26.50;43.90;;;30.70;27.74;100727.81;5115065;28;20335;-12
2022/06/24 01:48:42;;;;;;;;;;;26.50;43.80;;;30.67;27.82;100711.94;5114953;28;19916;-13
2022/06/24 01:51:11;;;;;;;;;;;26.50;43.90;;;30.67;27.64;100717.34;5115077;28;19915;-12
2022/06/24 01:53:39;;;;;;;;;;;26.50;43.80;;;30.68;27.79;100713.66;5096800;28;19923;-12
2022/06/24 01:56:04;;;;;;;;;;;26.50;43.80;;;30.69;27.81;100714.47;5114923;28;19916;-12
2022/06/24 01:58:30;;;;;;;;;;;26.50;43.90;;;30.60;27.92;100697.44;5114649;28;19941;-12
2022/06/24 02:00:56;;;;;;;;;;;26.50;43.90;;;30.60;27.72;100692.88;5114824;28;19923;-12
2022/06/24 02:03:22;;;;;;;;;;;26.40;43.80;;;30.67;27.79;100698.44;5114351;28;20406;-12
2022/06/24 02:05:47;;;;;;;;;;;26.40;43.80;;;30.68;27.71;100692.06;5114727;28;19922;-13
2022/06/24 02:08:13;;;;;;;;;;;26.50;43.90;;;30.64;27.82;100679.91;5114695;28;20006;-13
2022/06/24 02:13:26;;;;;;;;;;;26.40;43.80;;;30.66;27.84;100691.38;5114633;28;19922;-13
2022/06/24 02:15:53;;;;;;;;;;;26.50;43.90;;;30.63;27.84;100675.50;5096771;28;20390;-12
2022/06/24 02:18:19;;;;;;;;;;;26.50;43.90;;;30.60;27.69;100675.84;5114283;28;19916;-12
2022/06/24 02:20:45;;;;;;;;;;;26.40;43.80;;;30.62;27.83;100671.97;5094565;28;19916;-12
2022/06/24 02:23:11;;;;;;;;;;;26.50;43.90;;;30.65;27.73;100677.03;5096121;28;19947;-12
2022/06/24 02:25:37;;;;;;;;;;;26.40;43.80;;;30.61;27.79;100666.75;5114446;28;19916;-12
2022/06/24 02:28:03;;;;;;;;;;;26.40;43.80;;;30.63;27.87;100672.81;5114483;28;19923;-12
2022/06/24 02:30:29;;;;;;;;;;;26.40;43.80;;;30.65;28.10;100678.88;5114365;28;20010;-12
2022/06/24 02:32:55;;;;;;;;;;;26.40;43.80;;;30.62;27.55;100673.81;5114313;28;19951;-12
2022/06/24 02:35:21;;;;;;;;;;;26.40;43.80;;;30.59;27.95;100660.66;5113553;28;19930;-12
2022/06/24 02:37:47;;;;;;;;;;;26.40;43.80;;;30.65;27.93;100673.50;5114210;28;19923;-12
2022/06/24 02:42:57;;;;;;;;;;;26.40;43.80;;;30.61;27.77;100664.03;5114527;28;19980;-12
2022/06/24 02:45:23;;;;;;;;;;;26.40;43.80;;;30.63;27.86;100665.56;5114120;28;20301;-12
2022/06/24 02:47:50;;;;;;;;;;;26.40;43.80;;;30.64;27.79;100661.03;5114185;28;19922;-12
2022/06/24 02:50:16;;;;;;;;;;;26.40;43.80;;;30.64;27.85;100661.88;5113956;28;19916;-12
2022/06/24 02:52:41;;;;;;;;;;;26.40;43.90;;;30.63;27.82;100656.63;5113941;28;19924;-12
2022/06/24 02:55:07;;;;;;;;;;;26.40;43.80;;;30.58;27.88;100642.78;5114299;28;19916;-12
2022/06/24 02:57:33;;;;;;;;;;;26.40;43.90;;;30.59;27.78;100636.34;5113703;28;19915;-12
2022/06/24 02:59:59;;;;;;;;;;;26.40;43.80;;;30.64;27.86;100644.84;5095616;28;20253;-12
2022/06/24 03:02:25;;;;;;;;;;;26.40;43.80;;;30.62;27.66;100638.72;5114192;28;19916;-12
2022/06/24 03:04:51;;;;;;;;;;;26.40;43.80;;;30.57;27.73;100628.47;5113890;28;20018;-12
2022/06/24 03:07:16;;;;;;;;;;;26.40;43.80;;;30.64;27.94;100637.56;5113733;28;20383;-12
2022/06/24 03:09:42;;;;;;;;;;;26.40;43.80;;;30.61;27.93;100626.28;5114337;28;19927;-13
2022/06/24 03:12:08;;;;;;;;;;;26.40;43.80;;;30.65;27.79;100619.53;5114017;28;20018;-12
2022/06/24 03:14:34;;;;;;;;;;;26.50;43.80;;;30.62;27.92;100625.25;5113676;28;19916;-12
2022/06/24 03:16:59;;;;;;;;;;;26.50;43.80;;;30.63;28.03;100624.25;5114125;28;19980;-12
2022/06/24 03:19:25;;;;;;;;;;;26.50;43.70;;;30.64;27.79;100613.28;5113653;28;20014;-12
2022/06/24 03:21:51;;;;;;;;;;;26.50;43.70;;;30.66;28.02;100619.34;5113591;28;19938;-12
2022/06/24 03:24:17;;;;;;;;;;;26.60;43.70;;;30.69;27.67;100611.94;5114193;28;20363;-12
2022/06/24 03:26:43;;;;;;;;;;;26.60;43.60;;;30.70;27.72;100606.38;5114100;28;20340;-12
2022/06/24 03:29:09;;;;;;;;;;;26.60;43.60;;;30.74;27.71;100605.06;5113542;28;19923;-13
2022/06/24 03:31:34;;;;;;;;;;;26.60;43.50;;;30.75;27.75;100604.00;5113913;28;20010;-12
2022/06/24 03:34:00;;;;;;;;;;;26.60;43.40;;;30.80;27.74;100603.53;5113694;28;20006;-12
2022/06/24 03:36:26;;;;;;;;;;;26.60;43.40;;;30.78;27.78;100589.34;5113383;28;19916;-12
2022/06/24 03:38:51;;;;;;;;;;;26.70;43.40;;;30.79;27.51;100580.22;5113899;28;20010;-12
2022/06/24 03:41:17;;;;;;;;;;;26.70;43.40;;;30.86;27.65;100592.06;5113938;28;20405;-12
2022/06/24 03:43:43;;;;;;;;;;;26.70;43.30;;;30.87;27.54;100580.25;5113656;28;20057;-13
2022/06/24 03:46:09;;;;;;;;;;;26.80;43.30;;;30.84;27.73;100580.59;5113326;28;19915;-12
2022/06/24 03:48:35;;;;;;;;;;;26.80;43.20;;;30.88;27.63;100575.72;5116509;28;19919;-12
2022/06/24 03:51:01;;;;;;;;;;;26.80;43.20;;;30.95;27.51;100580.28;5116942;28;20007;-12
2022/06/24 03:53:26;;;;;;;;;;;26.90;43.20;;;30.95;27.42;100574.88;5116919;28;20351;-12
2022/06/24 03:55:52;;;;;;;;;;;26.90;43.10;;;30.93;27.71;100565.25;5116817;28;20014;-12
2022/06/24 03:58:19;;;;;;;;;;;27.00;43.10;;;30.98;27.52;100554.81;5116330;28;19942;-12
2022/06/24 04:00:45;;;;;;;;;;;27.00;43.00;;;31.07;27.46;100558.34;5116706;28;19923;-13
2022/06/24 04:03:11;;;;;;;;;;;27.00;42.90;;;31.07;27.47;100561.88;5116437;28;19961;-12
2022/06/24 04:05:37;;;;;;;;;;;27.00;42.90;;;31.07;27.37;100558.34;5116680;28;20014;-12
2022/06/24 04:08:03;;;;;;;;;;;27.00;42.90;;;31.12;27.33;100553.28;5116340;28;19916;-12
2022/06/24 04:10:29;;;;;;;;;;;27.10;42.90;;;31.14;27.40;100552.13;5116514;28;19968;-12
2022/06/24 04:12:55;;;;;;;;;;;27.10;42.80;;;31.17;27.13;100549.06;5117144;28;19931;-12
2022/06/24 04:15:20;;;;;;;;;;;27.20;42.70;;;31.21;27.25;100550.41;5117067;28;20031;-12
2022/06/24 04:17:48;;;;;;;;;;;27.20;42.60;;;31.20;27.50;100550.56;5116469;28;19915;-13
2022/06/24 04:20:15;;;;;;;;;;;27.30;42.60;;;31.23;27.35;100549.41;5116233;28;19923;-12
2022/06/24 04:22:41;;;;;;;;;;;27.30;42.60;;;31.27;27.35;100548.88;5116428;28;19986;-12
2022/06/24 04:25:08;;;;;;;;;;;27.30;42.60;;;31.28;27.26;100544.34;5116681;28;19915;-12
2022/06/24 04:27:34;;;;;;;;;;;27.30;42.60;;;31.31;27.25;100535.91;5116315;28;19916;-12
2022/06/24 04:30:01;;;;;;;;;;;27.30;42.60;;;31.30;27.18;100528.78;5116151;28;20431;-12
2022/06/24 04:32:27;;;;;;;;;;;27.30;42.60;;;31.33;27.27;100529.28;5116219;28;19947;-12
2022/06/24 04:34:52;;;;;;;;;;;27.30;42.60;;;31.33;27.24;100529.28;5116111;28;20352;-12
2022/06/24 04:37:18;;;;;;;;;;;27.30;42.50;;;31.31;27.17;100506.19;5116169;28;19915;-13
2022/06/24 04:39:44;;;;;;;;;;;27.40;42.50;;;31.38;27.33;100516.09;5115964;28;19947;-12
2022/06/24 04:42:10;;;;;;;;;;;27.40;42.50;;;31.42;27.05;100513.06;5116351;28;19915;-12
2022/06/24 04:44:36;;;;;;;;;;;27.40;42.40;;;31.40;27.05;100511.38;5115971;28;19916;-12
2022/06/24 04:47:02;;;;;;;;;;;27.40;42.40;;;31.46;27.01;100511.69;5116064;28;19968;-12
2022/06/24 04:49:28;;;;;;;;;;;27.50;42.40;;;31.45;27.00;100504.63;5116321;28;19919;-12
2022/06/24 04:51:54;;;;;;;;;;;27.50;42.30;;;31.49;26.90;100497.84;5115885;28;20368;-12
2022/06/24 04:54:21;;;;;;;;;;;27.60;42.30;;;31.58;27.11;100510.34;5116013;28;19998;-12
2022/06/24 04:56:46;;;;;;;;;;;27.70;42.20;;;31.61;26.88;100510.00;5115828;28;19915;-12
2022/06/24 04:59:12;;;;;;;;;;;27.70;42.10;;;31.58;26.70;100505.78;5115403;28;19916;-12
2022/06/24 05:01:38;;;;;;;;;;;27.70;42.00;;;31.65;26.78;100507.78;5116070;28;20052;-12
2022/06/24 05:04:04;;;;;;;;;;;27.80;42.00;;;31.65;26.67;100497.81;5115719;28;19946;-12
2022/06/24 05:06:30;;;;;;;;;;;27.80;41.90;;;31.68;26.64;100496.63;5115721;28;20790;-12
2022/06/24 05:08:56;;;;;;;;;;;27.80;41.80;;;31.76;26.93;100500.13;5115974;28;20268;-12
2022/06/24 05:11:21;;;;;;;;;;;27.90;41.80;;;31.81;26.77;100494.22;5115618;28;19941;-12
2022/06/24 05:13:47;;;;;;;;;;;27.90;41.70;;;31.83;26.99;100494.88;5115563;28;19915;-12
2022/06/24 05:16:13;;;;;;;;;;;27.90;41.70;;;31.81;26.70;100483.41;5115958;28;19915;-12
2022/06/24 05:18:39;;;;;;;;;;;28.00;41.70;;;31.87;26.82;100490.78;5115556;28;19915;-12
2022/06/24 05:21:05;;;;;;;;;;;28.00;41.60;;;31.82;26.88;100482.38;5115650;28;19985;-13
2022/06/24 05:23:30;;;;;;;;;;;28.00;41.60;;;31.92;26.85;100501.09;5115609;28;19927;-12
2022/06/24 05:25:56;;;;;;;;;;;28.00;42.10;;;31.89;26.69;100487.91;5115789;28;20397;-12
2022/06/24 05:28:22;;;;;;;;;;;28.10;41.60;;;31.93;26.47;100487.38;5096561;28;19923;-13
2022/06/24 05:30:54;;;;;;;;;;;28.10;41.50;;;31.98;26.61;100477.88;5115369;28;20052;-12
2022/06/24 05:33:20;;;;;;;;;;;28.10;41.40;;;32.04;26.60;100488.00;5115078;28;19922;-12
2022/06/24 05:35:46;;;;;;;;;;;28.20;41.40;;;32.04;26.43;100478.00;5115231;28;20007;-13
2022/06/24 05:38:11;;;;;;;;;;;28.20;41.40;;;32.08;26.24;100478.56;5114987;28;19923;-13
2022/06/24 05:40:37;;;;;;;;;;;28.20;41.30;;;32.11;26.45;100480.88;5115151;28;19919;-12
2022/06/24 05:43:03;;;;;;;;;;;28.30;41.30;;;32.11;26.64;100470.06;5096768;28;19916;-12
2022/06/24 05:45:28;;;;;;;;;;;28.30;41.30;;;32.15;26.24;100478.69;5115035;28;20416;-12
2022/06/24 05:47:54;;;;;;;;;;;28.30;41.30;;;32.19;26.44;100477.28;5115406;28;19923;-12
2022/06/24 05:50:20;;;;;;;;;;;28.30;41.30;;;32.18;26.01;100471.06;5115039;28;20382;-12
2022/06/24 05:55:30;;;;;;;;;;;28.30;41.20;;;32.26;26.39;100464.72;5115027;28;19985;-12
2022/06/24 05:57:56;;;;;;;;;;;28.30;41.10;;;32.25;26.35;100455.78;5114542;28;20279;-12
2022/06/24 06:00:21;;;;;;;;;;;28.40;41.10;;;32.25;26.11;100454.94;5114809;28;19915;-12
2022/06/24 06:02:47;;;;;;;;;;;28.40;41.10;;;32.33;26.29;100457.59;5114882;28;19915;-12
2022/06/24 06:05:13;;;;;;;;;;;28.40;41.20;;;32.34;26.42;100453.03;5115011;28;20384;-12
2022/06/24 06:07:39;;;;;;;;;;;28.40;41.10;;;32.35;26.40;100438.47;5114988;28;19939;-12
2022/06/24 06:10:05;;;;;;;;;;;28.40;41.10;;;32.38;26.35;100447.06;5113641;28;20375;-12
2022/06/24 06:12:33;;;;;;;;;;;28.40;41.10;;;32.40;26.26;100444.19;5114535;28;19965;-12
2022/06/24 06:14:59;;;;;;;;;;;28.50;41.10;;;32.43;26.28;100433.00;5114905;28;20267;-12
2022/06/24 06:17:25;;;;;;;;;;;28.50;41.00;;;32.49;26.27;100437.66;5114265;28;19916;-13
2022/06/24 06:19:51;;;;;;;;;;;28.50;41.00;;;32.49;25.98;100432.25;5096850;28;19917;-12
2022/06/24 06:22:17;;;;;;;;;;;28.60;41.00;;;32.49;26.10;100432.25;5114480;28;19923;-12
2022/06/24 06:24:43;;;;;;;;;;;28.50;41.10;;;32.55;26.21;100441.53;5096097;28;20373;-12
2022/06/24 06:27:09;;;;;;;;;;;28.50;41.10;;;32.47;26.18;100426.19;5114307;28;19915;-12
2022/06/24 06:29:34;;;;;;;;;;;28.50;41.10;;;32.49;25.82;100443.94;5114306;28;19961;-12
2022/06/24 06:32:00;;;;;;;;;;;28.40;41.20;;;32.50;25.82;100463.72;5114601;28;20002;-12
2022/06/24 06:34:26;;;;;;;;;;;28.40;41.30;;;32.48;25.80;100477.44;5114544;28;19923;-12
2022/06/24 06:36:52;;;;;;;;;;;28.40;41.30;;;32.47;26.06;100473.03;5114783;28;19996;-12
2022/06/24 06:39:17;;;;;;;;;;;28.40;41.30;;;32.45;26.25;100458.00;5114166;28;19915;-12
2022/06/24 06:41:46;;;;;;;;;;;28.40;41.30;;;32.47;25.64;100462.22;5114079;28;19916;-12
2022/06/24 06:44:14;;;;;;;;;;;28.30;41.20;;;32.48;26.04;100466.59;5114406;28;19916;-12
2022/06/24 06:46:41;;;;;;;;;;;28.30;41.30;;;32.46;25.94;100462.38;5113933;28;20253;-12
2022/06/24 06:49:07;;;;;;;;;;;28.30;41.30;;;32.46;26.09;100463.25;5113977;28;20423;-12
2022/06/24 06:51:32;;;;;;;;;;;28.30;41.40;;;32.44;26.20;100459.03;5112631;28;19958;-12
2022/06/24 06:53:58;;;;;;;;;;;28.30;41.40;;;32.45;26.07;100471.53;5114233;28;19926;-12
2022/06/24 06:56:24;;;;;;;;;;;28.30;41.40;;;32.44;25.83;100467.97;5114243;28;19915;-12
2022/06/24 06:58:49;;;;;;;;;;;28.30;41.40;;;32.39;26.02;100472.25;5113709;28;20014;-12
2022/06/24 07:01:15;;;;;;;;;;;28.30;41.50;;;32.37;25.90;100458.91;5113822;28;19931;-12
2022/06/24 07:03:41;;;;;;;;;;;28.30;41.50;;;32.39;26.11;100461.44;5113810;28;20339;-12
2022/06/24 07:06:06;;;;;;;;;;;28.30;41.50;;;32.43;25.96;100466.31;5113676;28;19915;-12
2022/06/24 07:08:32;;;;;;;;;;;28.30;41.50;;;32.46;25.88;100471.38;5094801;28;19916;-12
2022/06/24 07:10:58;;;;;;;;;;;28.30;41.40;;;32.47;25.79;100466.78;5113777;28;20379;-12
2022/06/24 07:13:24;;;;;;;;;;;28.30;41.30;;;32.53;25.82;100457.94;5113639;28;19947;-12
2022/06/24 07:15:50;;;;;;;;;;;28.40;41.30;;;32.55;26.12;100458.59;5095600;28;19915;-12
2022/06/24 07:18:16;;;;;;;;;;;28.40;41.10;;;32.55;25.79;100442.38;5113054;28;19923;-12
2022/06/24 07:20:44;;;;;;;;;;;28.50;41.10;;;32.60;26.08;100441.81;5113188;28;19933;-12
2022/06/24 07:23:10;;;;;;;;;;;28.60;41.10;;;32.63;25.71;100436.91;5114078;28;20014;-12
2022/06/24 07:25:36;;;;;;;;;;;28.60;41.00;;;32.67;26.02;100437.38;5113864;28;20397;-12
2022/06/24 07:28:02;;;;;;;;;;;28.60;40.90;;;32.71;25.62;100432.44;5114100;28;20010;-12
2022/06/24 07:30:28;;;;;;;;;;;28.60;40.90;;;32.75;25.58;100440.03;5094986;28;20355;-12
2022/06/24 07:32:54;;;;;;;;;;;28.70;40.90;;;32.73;25.90;100431.25;5113662;28;19923;-12
2022/06/24 07:35:20;;;;;;;;;;;28.70;40.90;;;32.76;25.92;100421.91;5113162;28;19915;-13
2022/06/24 07:37:46;;;;;;;;;;;28.70;40.90;;;32.77;25.85;100419.00;5113213;28;20302;-13
2022/06/24 07:40:11;;;;;;;;;;;28.70;41.30;;;32.81;25.85;100416.78;5113071;28;19915;-12
2022/06/24 07:42:37;;;;;;;;;;;28.80;40.80;;;32.83;25.85;100418.28;5113209;28;20283;-13
2022/06/24 07:45:03;;;;;;;;;;;28.80;40.80;;;32.89;25.79;100432.09;5113316;28;19916;-13
2022/06/24 07:47:29;;;;;;;;;;;28.80;40.80;;;32.87;25.46;100426.88;5113140;28;19916;-13
2022/06/24 07:49:54;;;;;;;;;;;28.80;40.70;;;32.91;25.37;100419.22;5113060;28;19923;-13
2022/06/24 07:52:20;;;;;;;;;;;28.80;40.70;;;32.89;25.64;100424.81;5113177;28;20010;-13
2022/06/24 07:54:46;;;;;;;;;;;28.80;41.20;;;32.87;25.44;100410.63;5111765;28;19922;-13
2022/06/24 07:57:12;;;;;;;;;;;28.80;40.70;;;32.95;25.29;100418.66;5113013;28;19922;-13
2022/06/24 07:59:38;;;;;;;;;;;28.80;40.70;;;32.89;25.36;100403.16;5113039;28;19916;-13
2022/06/24 08:02:07;;;;;;;;;;;28.80;40.70;;;32.91;25.47;100403.81;5112937;28;19916;-13
2022/06/24 08:04:33;;;;;;;;;;;28.80;40.70;;;32.94;25.69;100406.13;5113296;28;19922;-13
2022/06/24 08:06:59;;;;;;;;;;;28.80;40.70;;;32.97;25.68;100407.66;5095215;28;19923;-13
2022/06/24 08:09:32;;;;;;;;;;;28.80;40.80;;;32.96;25.40;100403.25;5112960;28;19916;-13
2022/06/24 08:11:58;;;;;;;;;;;28.80;40.80;;;32.93;25.61;100385.53;5113308;28;19915;-13
2022/06/24 08:14:24;;;;;;;;;;;28.80;40.70;;;32.93;25.39;100392.78;5112932;28;19963;-13
2022/06/24 08:16:50;;;;;;;;;;;28.80;40.70;;;32.95;25.59;100391.59;5112565;28;19920;-13
2022/06/24 08:19:19;;;;;;;;;;;28.80;40.80;;;32.93;25.12;100384.66;5112600;28;20268;-12
2022/06/24 08:21:45;;;;;;;;;;;28.80;40.70;;;32.94;25.64;100389.06;5112696;28;19924;-12
2022/06/24 08:24:12;;;;;;;;;;;28.80;40.70;;;32.97;25.22;100384.09;5113028;28;19961;-12
2022/06/24 08:26:38;;;;;;;;;;;28.80;40.80;;;32.91;25.17;100376.72;5112653;28;19922;-12
2022/06/24 08:29:04;;;;;;;;;;;28.70;40.70;;;32.91;25.09;100367.78;5113006;28;19916;-12
2022/06/24 08:31:29;;;;;;;;;;;28.70;40.80;;;32.89;25.31;100359.00;5113132;28;19915;-12
2022/06/24 08:33:55;;;;;;;;;;;28.70;40.90;;;32.93;25.42;100365.72;5114973;28;20010;-12
2022/06/24 08:36:26;;;;;;;;;;;28.70;40.90;;;32.92;25.67;100353.22;5116653;28;19916;-12
2022/06/24 08:38:52;;;;;;;;;;;28.60;40.90;;;32.88;25.28;100355.47;5116075;28;20393;-12
2022/06/24 08:41:27;;;;;;;;;;;28.60;41.00;;;32.83;25.31;100347.88;5115861;28;20317;-12
2022/06/24 08:43:54;;;;;;;;;;;28.60;41.00;;;32.86;25.33;100347.53;5095885;28;20268;-12
2022/06/24 08:46:21;;;;;;;;;;;28.60;41.10;;;32.83;25.65;100336.22;5115951;28;19923;-12
2022/06/24 08:48:48;;;;;;;;;;;28.50;41.10;;;32.79;25.80;100334.91;5115847;28;20364;-12
2022/06/24 08:51:14;;;;;;;;;;;28.50;41.10;;;32.80;25.24;100336.59;5115665;28;20283;-12
2022/06/24 08:53:40;;;;;;;;;;;28.50;41.10;;;32.78;25.51;100325.09;5116185;28;19915;-12
2022/06/24 08:56:07;;;;;;;;;;;28.50;41.20;;;32.75;25.73;100310.06;5115547;28;19915;-12
2022/06/24 08:58:35;;;;;;;;;;;28.40;41.20;;;32.74;25.72;100324.63;5097540;28;19945;-12
2022/06/24 09:01:01;;;;;;;;;;;28.40;41.30;;;32.71;25.84;100306.03;5114721;28;19915;-12
2022/06/24 09:03:27;;;;;;;;;;;28.40;41.40;;;32.68;25.79;100304.56;5115018;28;19915;-12
2022/06/24 09:05:53;;;;;;;;;;;28.30;41.30;;;32.66;25.79;100303.91;5115372;28;19915;-12
2022/06/24 09:08:19;;;;;;;;;;;28.30;41.40;;;32.62;25.83;100301.75;5116007;28;19919;-12
2022/06/24 09:13:41;;;;;;;;;;;28.30;41.40;;;32.60;25.56;100298.38;5112330;28;20354;-12
2022/06/24 09:16:08;;;;;;;;;;;28.30;42.10;;;32.52;25.83;100304.72;5114211;28;19916;-12
2022/06/24 09:18:35;;;;;;;;;;;28.30;41.60;;;32.53;25.92;100302.84;5115216;28;20010;-12
2022/06/24 09:21:00;;;;;;;;;;;28.20;41.50;;;32.50;25.58;100296.78;5115355;28;20363;-12
2022/06/24 09:23:26;;;;;;;;;;;28.20;41.60;;;32.52;25.64;100312.00;5115256;28;19915;-12
2022/06/24 09:26:02;;;;;;;;;;;28.20;41.60;;;32.45;25.64;100301.06;5097136;28;20022;-12
2022/06/24 09:28:30;;;;;;;;;;;28.20;41.70;;;32.42;26.07;100291.44;5097091;28;19961;-12
2022/06/24 09:31:00;;;;;;;;;;;28.20;41.70;;;32.45;25.82;100293.78;5115896;28;20372;-12
2022/06/24 09:33:26;;;;;;;;;;;28.20;41.70;;;32.44;25.85;100299.38;5113048;28;19951;-12
2022/06/24 09:36:03;;;;;;;;;;;28.20;41.80;;;32.36;26.02;100284.09;5115257;28;19943;-11
2022/06/24 09:38:28;;;;;;;;;;;28.10;41.80;;;32.36;25.80;100275.97;5114976;28;19928;-12
2022/06/24 09:41:04;;;;;;;;;;;28.10;41.80;;;32.34;25.87;100272.59;5114936;28;20382;-12
2022/06/24 09:43:31;;;;;;;;;;;28.10;41.80;;;32.32;25.97;100270.06;5114721;28;19916;-12
2022/06/24 09:45:58;;;;;;;;;;;28.10;41.90;;;32.28;26.31;100268.75;5114224;28;19981;-12
2022/06/24 09:48:38;;;;;;;;;;;28.10;41.90;;;32.27;26.31;100269.78;5114806;28;19915;-12
2022/06/24 09:51:06;;;;;;;;;;;28.10;41.90;;;32.31;26.06;100278.34;5114878;28;19915;-12
2022/06/24 09:53:37;;;;;;;;;;;28.00;41.90;;;32.28;25.70;100270.63;5114736;28;19924;-12
2022/06/24 09:56:13;;;;;;;;;;;28.00;41.90;;;32.24;26.16;100262.03;5114581;28;20341;-12
2022/06/24 10:00:40;;;;;;;;;;;28.00;41.90;;;32.26;25.96;100273.53;5110945;28;19916;-11
2022/06/24 10:01:36;;;;;;;;;;;28.00;41.90;;;32.24;26.36;100272.00;5113679;28;20256;-12
2022/06/24 10:04:09;;;;;;;;;;;28.00;42.00;;;32.24;26.18;100274.72;5114879;28;19915;-12
2022/06/24 10:06:36;;;;;;;;;;;28.00;42.00;;;32.19;25.88;100272.56;5114775;28;19927;-12
2022/06/24 10:09:06;;;;;;;;;;;28.00;42.00;;;32.21;25.95;100277.78;5114610;28;19915;-12
2022/06/24 10:11:34;;;;;;;;;;;28.00;42.00;;;32.23;25.90;100273.06;5114640;28;20252;-12
2022/06/24 10:14:00;;;;;;;;;;;28.00;42.00;;;32.17;25.98;100271.91;5114576;28;19923;-12
2022/06/24 10:16:26;;;;;;;;;;;28.00;42.00;;;32.24;26.39;100288.25;5114622;28;20275;-12
2022/06/24 10:18:52;;;;;;;;;;;28.00;42.00;;;32.20;26.32;100276.97;5114389;28;19923;-12
2022/06/24 10:21:19;;;;;;;;;;;28.00;42.00;;;32.21;26.37;100284.06;5079421;28;19959;-12
2022/06/24 10:23:49;;;;;;;;;;;28.00;42.00;;;32.17;26.24;100271.91;5114437;28;20398;-12
2022/06/24 10:26:18;;;;;;;;;;;28.00;42.00;;;32.24;26.00;100282.84;5114803;28;20284;-12
2022/06/24 10:29:02;;;;;;;;;;;28.00;42.00;;;32.23;26.33;100275.75;5096261;28;19915;-12
2022/06/24 10:31:56;;;;;;;;;;;28.00;42.00;;;32.21;26.54;100275.94;5114592;28;19915;-12
2022/06/24 10:34:21;;;;;;;;;;;28.00;42.10;;;32.19;25.99;100269.84;5114556;28;19915;-12
2022/06/24 10:36:51;;;;;;;;;;;27.90;42.00;;;32.19;26.45;100260.91;5114108;28;19915;-12
2022/06/24 10:39:21;;;;;;;;;;;28.00;42.10;;;32.16;26.14;100255.88;5114118;28;20322;-12
2022/06/24 10:42:00;;;;;;;;;;;27.90;42.00;;;32.12;26.04;100248.13;5114233;28;20279;-12
2022/06/24 10:44:37;;;;;;;;;;;28.00;42.10;;;32.16;26.40;100259.44;5114341;28;19916;-12
2022/06/24 10:47:10;;;;;;;;;;;28.00;42.10;;;32.20;26.30;100265.31;5114221;28;19915;-12
2022/06/24 10:49:51;;;;;;;;;;;28.00;42.10;;;32.20;26.31;100259.91;5114266;28;19916;-12
2022/06/24 10:53:00;;;;;;;;;;;28.00;42.10;;;32.20;26.28;100259.91;5114026;28;20356;-12
2022/06/24 10:55:28;;;;;;;;;;;28.00;42.10;;;32.16;26.21;100254.03;5113333;28;19923;-12
2022/06/24 10:57:57;;;;;;;;;;;28.00;42.10;;;32.17;26.25;100260.25;5113823;28;20029;-12
2022/06/24 11:00:39;;;;;;;;;;;28.00;42.00;;;32.19;26.18;100248.22;5113809;28;19916;-12
2022/06/24 11:03:05;;;;;;;;;;;28.00;42.00;;;32.22;26.10;100244.31;5113799;28;19915;-12
2022/06/24 11:05:36;;;;;;;;;;;28.10;42.00;;;32.19;26.50;100229.28;5095845;28;19916;-12
2022/06/24 11:08:03;;;;;;;;;;;28.00;42.00;;;32.17;26.30;100228.63;5114035;28;19916;-12
2022/06/24 11:10:30;;;;;;;;;;;28.00;41.90;;;32.21;26.36;100231.81;5113622;28;20052;-12
2022/06/24 11:12:59;;;;;;;;;;;28.00;42.00;;;32.22;26.40;100228.91;5114157;28;20348;-12
2022/06/24 11:15:40;;;;;;;;;;;28.00;42.00;;;32.22;26.31;100226.22;5113577;28;19941;-12
2022/06/24 11:18:11;;;;;;;;;;;28.00;42.00;;;32.17;26.38;100220.53;5113596;28;20007;-12
2022/06/24 11:20:47;;;;;;;;;;;28.00;42.00;;;32.22;26.14;100218.09;5110483;28;20389;-12
2022/06/24 11:23:14;;;;;;;;;;;28.00;42.00;;;32.22;26.09;100220.81;5111641;28;20355;-12